Airfield :
LOGIN :

Register | Disclaimer

   EN    FR    IT 

 










Legend :    VFR   Marginal VFR   IFR   Intensive IFR   Very Intensive IFR
Visi :
Ceiling :
>= 8 km
>= 3000ft
5 to 8 km
1000 to 3000 ft
1500m to 5 km
500 to 1000 ft
800 to 1500m
200 to 500 ft
< 800m
< 200 ft
Symbols :   Thunderstorms  Fog  Heavy snow  Heavy precipitations  Wind > 20 kt
SIGMETs :     Misc.  Thunderstorms  Icing  Turbulence  Mountain Waves  Volcanic Ashes






- Airport Elevation : 220 ft
- IATA code : CWL


EGFF - Cardiff Rhoose

CURRENT METAR :
  • 051550Z AUTO 21011KT 9999 FEW017 BKN024 OVC031 19/17 Q1010

EXPIRED METARs :
  • 051520Z AUTO 21010KT 9999 BKN017 BKN023 OVC028 19/17 Q1010 RERA
  • 051450Z AUTO 21012KT 9999 -RA BKN018 OVC023 19/17 Q1010
  • 051420Z AUTO 22012KT 9999 BKN021 OVC026 19/17 Q1010
  • 051350Z 18009KT 6000 -SHRA BKN024TCU OVC047 19/17 Q1010
  • 051320Z AUTO 19009KT 9999 -RA FEW026/// SCT042/// OVC049/// //////CB 20/16 Q1010

TAF AMD TAF EGFF
Valid from the 05 at 13:00 until the 06 at 12:00 UTC


051350Z 0513/0612 22014KT 9999 SCT018
TEMPO 0513/0520 7000 SHRA BKN012
PROB30
TEMPO 0513/0520 4000 +SHRA RADZ BKN009
PROB30
TEMPO 0520/0606 4000 BR BKN009
BECMG 0600/0603 VRB03KT
ATIS : +44 1446 729 319



MET'MAP, your aeronautical weather chart ! - Copyright ORBIFLY December 2007 - Disclaimer

ORBIFLY MET'MAP TEAM :

Programming & Development : Alexandra Zaïnal
Concept & original design : Baudouin d'Aumeries
Assistance for programming : Marc-Olivier Méhu
Technical & hardware support : Manuel Goepfert

Contact : metmap@orbifly.com




SOURCES & CREDITS :

   NOAA